sensor_id;sensor_type;location;lat;lon;timestamp;pressure;altitude;pressure_sealevel;temperature;humidity
34235;BME280;20500;49.856;20.290;2023-12-22T00:00:08;95879.71;;;4.58;80.69
34235;BME280;20500;49.856;20.290;2023-12-22T00:03:14;95869.20;;;4.55;80.81
34235;BME280;20500;49.856;20.290;2023-12-22T00:06:20;95869.98;;;4.52;80.78
34235;BME280;20500;49.856;20.290;2023-12-22T00:09:25;95890.50;;;4.48;80.83
34235;BME280;20500;49.856;20.290;2023-12-22T00:12:31;95901.02;;;4.46;80.97
34235;BME280;20500;49.856;20.290;2023-12-22T00:15:37;95907.77;;;4.48;81.20
34235;BME280;20500;49.856;20.290;2023-12-22T00:18:42;95907.38;;;4.49;81.30
34235;BME280;20500;49.856;20.290;2023-12-22T00:21:48;95906.34;;;4.50;81.30
34235;BME280;20500;49.856;20.290;2023-12-22T00:24:54;95906.60;;;4.50;81.37
34235;BME280;20500;49.856;20.290;2023-12-22T00:28:00;95909.09;;;4.49;81.45
34235;BME280;20500;49.856;20.290;2023-12-22T00:31:06;95915.20;;;4.51;81.28
34235;BME280;20500;49.856;20.290;2023-12-22T00:34:12;95926.86;;;4.54;81.36
34235;BME280;20500;49.856;20.290;2023-12-22T00:37:18;95931.02;;;4.55;81.49
34235;BME280;20500;49.856;20.290;2023-12-22T00:40:24;95921.79;;;4.57;81.46
34235;BME280;20500;49.856;20.290;2023-12-22T00:43:30;95923.92;;;4.61;81.61
34235;BME280;20500;49.856;20.290;2023-12-22T00:46:35;95932.92;;;4.67;81.58
34235;BME280;20500;49.856;20.290;2023-12-22T00:49:41;95935.80;;;4.69;81.60
34235;BME280;20500;49.856;20.290;2023-12-22T00:52:47;95924.99;;;4.72;81.63
34235;BME280;20500;49.856;20.290;2023-12-22T00:55:53;95919.80;;;4.74;81.67
34235;BME280;20500;49.856;20.290;2023-12-22T00:58:58;95911.73;;;4.73;81.65
34235;BME280;20500;49.856;20.290;2023-12-22T01:02:14;95908.87;;;4.71;81.57
34235;BME280;20500;49.856;20.290;2023-12-22T01:05:20;95910.77;;;4.72;81.49
34235;BME280;20500;49.856;20.290;2023-12-22T01:08:26;95927.02;;;4.72;81.52
34235;BME280;20500;49.856;20.290;2023-12-22T01:11:31;95933.95;;;4.72;81.47
34235;BME280;20500;49.856;20.290;2023-12-22T01:14:37;95918.80;;;4.68;81.48
34235;BME280;20500;49.856;20.290;2023-12-22T01:17:43;95910.52;;;4.66;81.46
34235;BME280;20500;49.856;20.290;2023-12-22T01:20:49;95912.36;;;4.63;81.29
34235;BME280;20500;49.856;20.290;2023-12-22T01:23:55;95918.04;;;4.61;81.30
34235;BME280;20500;49.856;20.290;2023-12-22T01:27:00;95923.36;;;4.60;81.30
34235;BME280;20500;49.856;20.290;2023-12-22T01:30:08;95924.23;;;4.54;81.22
34235;BME280;20500;49.856;20.290;2023-12-22T01:33:14;95925.87;;;4.51;81.19
34235;BME280;20500;49.856;20.290;2023-12-22T01:36:20;95923.70;;;4.47;81.14
34235;BME280;20500;49.856;20.290;2023-12-22T01:39:26;95922.23;;;4.44;81.24
34235;BME280;20500;49.856;20.290;2023-12-22T01:42:31;95942.48;;;4.40;81.35
34235;BME280;20500;49.856;20.290;2023-12-22T01:45:37;95963.66;;;4.40;81.47
34235;BME280;20500;49.856;20.290;2023-12-22T01:48:43;96010.41;;;4.37;81.32
34235;BME280;20500;49.856;20.290;2023-12-22T01:51:47;96000.67;;;4.31;81.21
34235;BME280;20500;49.856;20.290;2023-12-22T01:54:53;95984.27;;;4.19;81.07
34235;BME280;20500;49.856;20.290;2023-12-22T01:58:00;95972.66;;;4.09;81.00
34235;BME280;20500;49.856;20.290;2023-12-22T02:01:06;95982.80;;;4.04;81.00
34235;BME280;20500;49.856;20.290;2023-12-22T02:04:13;95980.77;;;3.98;81.00
34235;BME280;20500;49.856;20.290;2023-12-22T02:07:19;95984.73;;;3.97;81.35
34235;BME280;20500;49.856;20.290;2023-12-22T02:10:24;95980.27;;;3.95;81.24
34235;BME280;20500;49.856;20.290;2023-12-22T02:13:30;95977.84;;;3.95;81.18
34235;BME280;20500;49.856;20.290;2023-12-22T02:16:41;95977.60;;;3.95;81.14
34235;BME280;20500;49.856;20.290;2023-12-22T02:19:50;95984.38;;;3.95;81.13
34235;BME280;20500;49.856;20.290;2023-12-22T02:22:56;95988.67;;;3.97;81.20
34235;BME280;20500;49.856;20.290;2023-12-22T02:26:09;95985.98;;;3.98;81.11
34235;BME280;20500;49.856;20.290;2023-12-22T02:29:17;95991.27;;;4.00;81.12
34235;BME280;20500;49.856;20.290;2023-12-22T02:32:27;95996.29;;;4.03;81.02
34235;BME280;20500;49.856;20.290;2023-12-22T02:35:37;95991.52;;;4.04;80.82
34235;BME280;20500;49.856;20.290;2023-12-22T02:38:47;95980.23;;;4.04;81.02
34235;BME280;20500;49.856;20.290;2023-12-22T02:41:53;95987.88;;;4.06;81.06
34235;BME280;20500;49.856;20.290;2023-12-22T02:45:00;95988.98;;;4.08;80.99
34235;BME280;20500;49.856;20.290;2023-12-22T02:48:07;95981.70;;;4.08;80.78
34235;BME280;20500;49.856;20.290;2023-12-22T02:51:13;95989.46;;;4.05;80.76
34235;BME280;20500;49.856;20.290;2023-12-22T02:54:18;95994.79;;;4.04;80.78
34235;BME280;20500;49.856;20.290;2023-12-22T02:57:24;95992.29;;;4.03;80.87
34235;BME280;20500;49.856;20.290;2023-12-22T03:00:30;95987.54;;;4.00;80.80
34235;BME280;20500;49.856;20.290;2023-12-22T03:03:36;95974.48;;;3.97;80.66
34235;BME280;20500;49.856;20.290;2023-12-22T03:06:41;95970.83;;;3.96;80.74
34235;BME280;20500;49.856;20.290;2023-12-22T03:09:47;95970.70;;;3.93;80.75
34235;BME280;20500;49.856;20.290;2023-12-22T03:12:52;95966.48;;;3.91;80.56
34235;BME280;20500;49.856;20.290;2023-12-22T03:15:58;95967.58;;;3.88;80.47
34235;BME280;20500;49.856;20.290;2023-12-22T03:19:04;95965.51;;;3.88;80.44
34235;BME280;20500;49.856;20.290;2023-12-22T03:22:10;95965.97;;;3.86;80.43
34235;BME280;20500;49.856;20.290;2023-12-22T03:25:15;95971.24;;;3.82;80.35
34235;BME280;20500;49.856;20.290;2023-12-22T03:28:21;95965.59;;;3.79;80.21
34235;BME280;20500;49.856;20.290;2023-12-22T03:31:27;95956.76;;;3.77;80.23
34235;BME280;20500;49.856;20.290;2023-12-22T03:34:33;95953.20;;;3.76;80.14
34235;BME280;20500;49.856;20.290;2023-12-22T03:37:39;95951.77;;;3.75;80.12
34235;BME280;20500;49.856;20.290;2023-12-22T03:40:44;95958.26;;;3.74;80.07
34235;BME280;20500;49.856;20.290;2023-12-22T03:43:50;95968.13;;;3.74;79.96
34235;BME280;20500;49.856;20.290;2023-12-22T03:46:56;95970.92;;;3.74;80.03
34235;BME280;20500;49.856;20.290;2023-12-22T03:50:02;95984.87;;;3.74;79.88
34235;BME280;20500;49.856;20.290;2023-12-22T03:53:08;95975.17;;;3.76;79.77
34235;BME280;20500;49.856;20.290;2023-12-22T03:56:14;95972.54;;;3.80;79.61
34235;BME280;20500;49.856;20.290;2023-12-22T03:59:19;95968.48;;;3.80;79.38
34235;BME280;20500;49.856;20.290;2023-12-22T04:02:25;95967.03;;;3.82;79.47
34235;BME280;20500;49.856;20.290;2023-12-22T04:05:31;95977.95;;;3.85;79.37
34235;BME280;20500;49.856;20.290;2023-12-22T04:08:37;95985.77;;;3.85;79.13
34235;BME280;20500;49.856;20.290;2023-12-22T04:11:42;95975.38;;;3.84;79.00
34235;BME280;20500;49.856;20.290;2023-12-22T04:14:48;95980.23;;;3.81;78.78
34235;BME280;20500;49.856;20.290;2023-12-22T04:17:54;95987.02;;;3.78;78.57
34235;BME280;20500;49.856;20.290;2023-12-22T04:21:00;96005.40;;;3.75;78.18
34235;BME280;20500;49.856;20.290;2023-12-22T04:24:07;96021.30;;;3.72;78.04
34235;BME280;20500;49.856;20.290;2023-12-22T04:27:13;96028.64;;;3.70;77.76
34235;BME280;20500;49.856;20.290;2023-12-22T04:30:19;96039.19;;;3.69;77.92
34235;BME280;20500;49.856;20.290;2023-12-22T04:33:25;96041.17;;;3.69;77.47
34235;BME280;20500;49.856;20.290;2023-12-22T04:36:31;96024.14;;;3.68;77.25
34235;BME280;20500;49.856;20.290;2023-12-22T04:39:36;96016.45;;;3.66;77.14
34235;BME280;20500;49.856;20.290;2023-12-22T04:42:43;96013.77;;;3.63;77.12
34235;BME280;20500;49.856;20.290;2023-12-22T04:45:47;96003.04;;;3.62;77.13
34235;BME280;20500;49.856;20.290;2023-12-22T04:48:52;96004.21;;;3.61;76.86
34235;BME280;20500;49.856;20.290;2023-12-22T04:51:58;95995.66;;;3.58;76.83
34235;BME280;20500;49.856;20.290;2023-12-22T04:55:06;95995.80;;;3.55;76.83
34235;BME280;20500;49.856;20.290;2023-12-22T04:58:10;95998.95;;;3.51;76.66
34235;BME280;20500;49.856;20.290;2023-12-22T05:01:16;96009.73;;;3.48;76.37
34235;BME280;20500;49.856;20.290;2023-12-22T05:04:22;96013.39;;;3.43;76.25
34235;BME280;20500;49.856;20.290;2023-12-22T05:07:28;96012.73;;;3.38;76.31
34235;BME280;20500;49.856;20.290;2023-12-22T05:10:32;96003.69;;;3.38;76.19
34235;BME280;20500;49.856;20.290;2023-12-22T05:13:38;95996.86;;;3.35;75.88
34235;BME280;20500;49.856;20.290;2023-12-22T05:16:45;95999.43;;;3.35;75.82
34235;BME280;20500;49.856;20.290;2023-12-22T05:19:51;95996.09;;;3.33;75.76
34235;BME280;20500;49.856;20.290;2023-12-22T05:22:56;95989.94;;;3.32;75.75
34235;BME280;20500;49.856;20.290;2023-12-22T05:26:03;95982.33;;;3.30;75.63
34235;BME280;20500;49.856;20.290;2023-12-22T05:29:09;95981.02;;;3.28;75.51
34235;BME280;20500;49.856;20.290;2023-12-22T05:32:17;95975.02;;;3.26;75.32
34235;BME280;20500;49.856;20.290;2023-12-22T05:35:22;95971.77;;;3.24;75.24
34235;BME280;20500;49.856;20.290;2023-12-22T05:38:29;95975.66;;;3.22;75.11
34235;BME280;20500;49.856;20.290;2023-12-22T05:41:36;95979.27;;;3.22;75.18
34235;BME280;20500;49.856;20.290;2023-12-22T05:44:42;95988.06;;;3.23;75.00
34235;BME280;20500;49.856;20.290;2023-12-22T05:47:48;95996.61;;;3.26;74.95
34235;BME280;20500;49.856;20.290;2023-12-22T05:50:54;96014.30;;;3.30;74.94
34235;BME280;20500;49.856;20.290;2023-12-22T05:54:01;96009.61;;;3.34;74.92
34235;BME280;20500;49.856;20.290;2023-12-22T05:57:07;96026.76;;;3.38;74.77
34235;BME280;20500;49.856;20.290;2023-12-22T06:00:15;96040.61;;;3.43;74.60
34235;BME280;20500;49.856;20.290;2023-12-22T06:03:21;96052.14;;;3.48;74.82
34235;BME280;20500;49.856;20.290;2023-12-22T06:06:27;96068.02;;;3.51;74.79
34235;BME280;20500;49.856;20.290;2023-12-22T06:09:34;96078.77;;;3.53;74.75
34235;BME280;20500;49.856;20.290;2023-12-22T06:12:40;96098.91;;;3.51;74.93
34235;BME280;20500;49.856;20.290;2023-12-22T06:15:45;96145.55;;;3.49;75.00
34235;BME280;20500;49.856;20.290;2023-12-22T06:18:51;96177.17;;;3.38;74.90
34235;BME280;20500;49.856;20.290;2023-12-22T06:21:57;96191.22;;;3.03;74.67
34235;BME280;20500;49.856;20.290;2023-12-22T06:25:05;96211.21;;;2.69;74.94
34235;BME280;20500;49.856;20.290;2023-12-22T06:28:12;96229.36;;;2.45;75.11
34235;BME280;20500;49.856;20.290;2023-12-22T06:31:21;96240.48;;;2.28;75.18
34235;BME280;20500;49.856;20.290;2023-12-22T06:34:26;96232.97;;;2.12;75.26
34235;BME280;20500;49.856;20.290;2023-12-22T06:37:32;96226.88;;;2.00;75.41
34235;BME280;20500;49.856;20.290;2023-12-22T06:40:38;96221.02;;;1.94;75.41
34235;BME280;20500;49.856;20.290;2023-12-22T06:43:44;96221.75;;;1.92;75.48
34235;BME280;20500;49.856;20.290;2023-12-22T06:46:49;96223.97;;;1.89;75.54
34235;BME280;20500;49.856;20.290;2023-12-22T06:49:55;96228.88;;;1.88;75.47
34235;BME280;20500;49.856;20.290;2023-12-22T06:53:01;96244.16;;;1.85;75.43
34235;BME280;20500;49.856;20.290;2023-12-22T06:56:22;96248.86;;;1.83;75.53
34235;BME280;20500;49.856;20.290;2023-12-22T06:59:29;96247.34;;;1.85;75.47
34235;BME280;20500;49.856;20.290;2023-12-22T07:02:37;96244.55;;;1.88;75.59
34235;BME280;20500;49.856;20.290;2023-12-22T07:05:41;96248.27;;;1.89;75.64
34235;BME280;20500;49.856;20.290;2023-12-22T07:12:07;96254.41;;;1.87;75.71
34235;BME280;20500;49.856;20.290;2023-12-22T07:15:14;96252.86;;;1.84;75.57
34235;BME280;20500;49.856;20.290;2023-12-22T07:18:20;96255.55;;;1.81;75.70
34235;BME280;20500;49.856;20.290;2023-12-22T07:21:26;96258.98;;;1.83;75.62
34235;BME280;20500;49.856;20.290;2023-12-22T07:24:31;96261.41;;;1.84;75.72
34235;BME280;20500;49.856;20.290;2023-12-22T07:27:37;96259.11;;;1.85;75.55
34235;BME280;20500;49.856;20.290;2023-12-22T07:30:43;96264.38;;;1.86;75.68
34235;BME280;20500;49.856;20.290;2023-12-22T07:33:48;96252.96;;;1.87;75.65
34235;BME280;20500;49.856;20.290;2023-12-22T07:36:54;96249.23;;;1.88;75.62
34235;BME280;20500;49.856;20.290;2023-12-22T07:40:12;96243.79;;;1.90;75.71
34235;BME280;20500;49.856;20.290;2023-12-22T07:43:18;96244.67;;;1.93;75.79
34235;BME280;20500;49.856;20.290;2023-12-22T07:46:23;96248.59;;;1.94;75.79
34235;BME280;20500;49.856;20.290;2023-12-22T07:49:29;96253.48;;;1.96;75.71
34235;BME280;20500;49.856;20.290;2023-12-22T07:52:36;96246.94;;;2.00;75.87
34235;BME280;20500;49.856;20.290;2023-12-22T07:55:45;96250.34;;;2.05;75.81
34235;BME280;20500;49.856;20.290;2023-12-22T07:58:51;96252.48;;;2.12;76.03
34235;BME280;20500;49.856;20.290;2023-12-22T08:02:05;96251.66;;;2.18;75.91
34235;BME280;20500;49.856;20.290;2023-12-22T08:05:10;96255.14;;;2.23;75.79
34235;BME280;20500;49.856;20.290;2023-12-22T08:08:15;96257.88;;;2.23;76.07
34235;BME280;20500;49.856;20.290;2023-12-22T08:11:20;96251.29;;;2.26;76.14
34235;BME280;20500;49.856;20.290;2023-12-22T08:14:28;96262.81;;;2.35;76.14
34235;BME280;20500;49.856;20.290;2023-12-22T08:17:33;96277.00;;;2.39;75.89
34235;BME280;20500;49.856;20.290;2023-12-22T08:20:40;96283.33;;;2.41;75.78
34235;BME280;20500;49.856;20.290;2023-12-22T08:23:48;96276.11;;;2.47;75.46
34235;BME280;20500;49.856;20.290;2023-12-22T08:26:59;96277.02;;;2.53;75.56
34235;BME280;20500;49.856;20.290;2023-12-22T08:30:06;96275.06;;;2.60;75.50
34235;BME280;20500;49.856;20.290;2023-12-22T08:33:12;96266.86;;;2.66;75.28
34235;BME280;20500;49.856;20.290;2023-12-22T08:36:18;96259.64;;;2.69;75.27
34235;BME280;20500;49.856;20.290;2023-12-22T08:39:24;96249.08;;;2.72;75.17
34235;BME280;20500;49.856;20.290;2023-12-22T08:42:31;96246.31;;;2.73;74.92
34235;BME280;20500;49.856;20.290;2023-12-22T08:45:36;96244.66;;;2.74;74.77
34235;BME280;20500;49.856;20.290;2023-12-22T08:48:42;96243.30;;;2.79;74.83
34235;BME280;20500;49.856;20.290;2023-12-22T08:51:47;96241.05;;;2.87;74.81
34235;BME280;20500;49.856;20.290;2023-12-22T08:54:53;96237.50;;;2.93;74.76
34235;BME280;20500;49.856;20.290;2023-12-22T08:57:58;96242.73;;;3.01;74.52
34235;BME280;20500;49.856;20.290;2023-12-22T09:01:06;96244.81;;;3.09;74.39
34235;BME280;20500;49.856;20.290;2023-12-22T09:04:12;96242.06;;;3.17;74.36
34235;BME280;20500;49.856;20.290;2023-12-22T09:07:19;96235.36;;;3.24;74.25
34235;BME280;20500;49.856;20.290;2023-12-22T09:10:27;96232.35;;;3.30;74.21
34235;BME280;20500;49.856;20.290;2023-12-22T09:13:32;96222.89;;;3.36;74.24
34235;BME280;20500;49.856;20.290;2023-12-22T09:16:40;96225.58;;;3.42;74.06
34235;BME280;20500;49.856;20.290;2023-12-22T09:19:47;96228.27;;;3.46;73.94
34235;BME280;20500;49.856;20.290;2023-12-22T09:22:52;96228.05;;;3.50;73.78
34235;BME280;20500;49.856;20.290;2023-12-22T09:25:58;96230.37;;;3.54;73.79
34235;BME280;20500;49.856;20.290;2023-12-22T09:29:03;96216.34;;;3.59;73.78
34235;BME280;20500;49.856;20.290;2023-12-22T09:32:09;96213.60;;;3.64;73.77
34235;BME280;20500;49.856;20.290;2023-12-22T09:35:15;96217.95;;;3.68;73.63
34235;BME280;20500;49.856;20.290;2023-12-22T09:38:21;96225.96;;;3.70;73.54
34235;BME280;20500;49.856;20.290;2023-12-22T09:41:28;96233.41;;;3.70;73.42
34235;BME280;20500;49.856;20.290;2023-12-22T09:44:34;96253.24;;;3.68;73.30
34235;BME280;20500;49.856;20.290;2023-12-22T09:47:42;96275.60;;;3.63;73.23
34235;BME280;20500;49.856;20.290;2023-12-22T09:50:49;96283.77;;;3.55;73.20
34235;BME280;20500;49.856;20.290;2023-12-22T09:53:57;96287.00;;;3.44;73.40
34235;BME280;20500;49.856;20.290;2023-12-22T09:57:06;96276.65;;;3.30;73.46
34235;BME280;20500;49.856;20.290;2023-12-22T10:00:26;96264.13;;;3.22;73.70
34235;BME280;20500;49.856;20.290;2023-12-22T10:03:35;96257.28;;;3.22;73.67
34235;BME280;20500;49.856;20.290;2023-12-22T10:06:42;96255.80;;;3.25;73.66
34235;BME280;20500;49.856;20.290;2023-12-22T10:09:50;96252.70;;;3.31;73.53
34235;BME280;20500;49.856;20.290;2023-12-22T10:12:57;96241.70;;;3.30;73.38
34235;BME280;20500;49.856;20.290;2023-12-22T10:16:06;96234.41;;;3.31;73.54
34235;BME280;20500;49.856;20.290;2023-12-22T10:19:12;96234.50;;;3.34;73.70
34235;BME280;20500;49.856;20.290;2023-12-22T10:22:18;96235.45;;;3.38;73.60
34235;BME280;20500;49.856;20.290;2023-12-22T10:25:30;96236.78;;;3.35;73.44
34235;BME280;20500;49.856;20.290;2023-12-22T10:28:36;96234.01;;;3.30;73.39
34235;BME280;20500;49.856;20.290;2023-12-22T10:31:42;96225.82;;;3.26;73.71
34235;BME280;20500;49.856;20.290;2023-12-22T10:34:48;96228.34;;;3.24;73.83
34235;BME280;20500;49.856;20.290;2023-12-22T10:37:56;96233.29;;;3.23;73.96
34235;BME280;20500;49.856;20.290;2023-12-22T10:41:06;96220.52;;;3.21;73.94
34235;BME280;20500;49.856;20.290;2023-12-22T10:44:12;96221.00;;;3.16;73.90
34235;BME280;20500;49.856;20.290;2023-12-22T10:47:18;96223.45;;;3.13;74.09
34235;BME280;20500;49.856;20.290;2023-12-22T10:50:26;96222.90;;;3.09;74.17
34235;BME280;20500;49.856;20.290;2023-12-22T10:53:31;96219.19;;;3.04;74.01
34235;BME280;20500;49.856;20.290;2023-12-22T10:56:37;96224.20;;;3.00;73.87
34235;BME280;20500;49.856;20.290;2023-12-22T10:59:47;96222.27;;;2.99;74.08
34235;BME280;20500;49.856;20.290;2023-12-22T11:03:01;96213.73;;;3.03;74.14
34235;BME280;20500;49.856;20.290;2023-12-22T11:06:12;96218.19;;;3.03;74.21
34235;BME280;20500;49.856;20.290;2023-12-22T11:09:22;96209.63;;;3.03;74.10
34235;BME280;20500;49.856;20.290;2023-12-22T11:12:29;96198.64;;;3.08;74.00
34235;BME280;20500;49.856;20.290;2023-12-22T11:15:37;96192.15;;;3.15;74.05
34235;BME280;20500;49.856;20.290;2023-12-22T11:18:43;96189.59;;;3.22;73.99
34235;BME280;20500;49.856;20.290;2023-12-22T11:21:51;96186.06;;;3.28;73.90
34235;BME280;20500;49.856;20.290;2023-12-22T11:24:58;96173.95;;;3.34;73.76
34235;BME280;20500;49.856;20.290;2023-12-22T11:28:05;96171.84;;;3.42;74.00
34235;BME280;20500;49.856;20.290;2023-12-22T11:31:11;96168.02;;;3.49;73.81
34235;BME280;20500;49.856;20.290;2023-12-22T11:34:19;96164.98;;;3.53;73.79
34235;BME280;20500;49.856;20.290;2023-12-22T11:37:26;96160.40;;;3.56;73.72
34235;BME280;20500;49.856;20.290;2023-12-22T11:40:32;96174.96;;;3.57;73.46
34235;BME280;20500;49.856;20.290;2023-12-22T11:43:38;96199.75;;;3.57;73.48
34235;BME280;20500;49.856;20.290;2023-12-22T11:46:45;96182.02;;;3.45;73.28
34235;BME280;20500;49.856;20.290;2023-12-22T11:49:50;96171.34;;;3.26;73.37
34235;BME280;20500;49.856;20.290;2023-12-22T11:52:55;96167.63;;;3.13;73.72
34235;BME280;20500;49.856;20.290;2023-12-22T11:56:02;96184.94;;;3.01;73.62
34235;BME280;20500;49.856;20.290;2023-12-22T11:59:10;96174.64;;;2.87;73.74
34235;BME280;20500;49.856;20.290;2023-12-22T12:02:16;96177.55;;;2.78;73.83
34235;BME280;20500;49.856;20.290;2023-12-22T12:05:22;96170.14;;;2.66;73.87
34235;BME280;20500;49.856;20.290;2023-12-22T12:08:32;96165.81;;;2.53;73.88
34235;BME280;20500;49.856;20.290;2023-12-22T12:12:11;96173.27;;;2.35;73.83
34235;BME280;20500;49.856;20.290;2023-12-22T12:15:19;96190.95;;;2.06;73.61
34235;BME280;20500;49.856;20.290;2023-12-22T12:18:29;96204.10;;;1.79;73.94
34235;BME280;20500;49.856;20.290;2023-12-22T12:21:35;96206.73;;;1.66;74.13
34235;BME280;20500;49.856;20.290;2023-12-22T12:24:41;96202.92;;;1.58;74.40
34235;BME280;20500;49.856;20.290;2023-12-22T12:27:47;96197.95;;;1.57;74.65
34235;BME280;20500;49.856;20.290;2023-12-22T12:30:58;96194.92;;;1.59;74.77
34235;BME280;20500;49.856;20.290;2023-12-22T12:34:05;96202.64;;;1.56;74.74
34235;BME280;20500;49.856;20.290;2023-12-22T12:37:09;96202.13;;;1.53;74.97
34235;BME280;20500;49.856;20.290;2023-12-22T12:40:17;96191.77;;;1.54;74.98
34235;BME280;20500;49.856;20.290;2023-12-22T12:43:26;96196.20;;;1.55;75.11
34235;BME280;20500;49.856;20.290;2023-12-22T12:46:35;96185.27;;;1.63;75.39
34235;BME280;20500;49.856;20.290;2023-12-22T12:49:41;96187.50;;;1.71;75.55
34235;BME280;20500;49.856;20.290;2023-12-22T12:52:46;96184.26;;;1.79;75.58
34235;BME280;20500;49.856;20.290;2023-12-22T12:55:56;96182.48;;;1.86;75.37
34235;BME280;20500;49.856;20.290;2023-12-22T12:59:02;96172.16;;;1.87;75.52
34235;BME280;20500;49.856;20.290;2023-12-22T13:02:12;96163.55;;;1.91;75.52
34235;BME280;20500;49.856;20.290;2023-12-22T13:05:23;96153.23;;;1.98;75.62
34235;BME280;20500;49.856;20.290;2023-12-22T13:08:28;96154.29;;;2.04;75.91
34235;BME280;20500;49.856;20.290;2023-12-22T13:11:46;96156.82;;;2.09;75.87
34235;BME280;20500;49.856;20.290;2023-12-22T13:14:50;96157.25;;;2.12;75.95
34235;BME280;20500;49.856;20.290;2023-12-22T13:17:56;96155.99;;;2.16;75.94
34235;BME280;20500;49.856;20.290;2023-12-22T13:21:03;96159.84;;;2.19;75.98
34235;BME280;20500;49.856;20.290;2023-12-22T13:24:11;96158.14;;;2.20;76.11
34235;BME280;20500;49.856;20.290;2023-12-22T13:27:16;96148.98;;;2.19;76.13
34235;BME280;20500;49.856;20.290;2023-12-22T13:30:34;96138.33;;;2.17;75.96
34235;BME280;20500;49.856;20.290;2023-12-22T13:33:41;96133.52;;;2.16;76.07
34235;BME280;20500;49.856;20.290;2023-12-22T13:36:46;96122.09;;;2.14;76.12
34235;BME280;20500;49.856;20.290;2023-12-22T13:39:52;96116.69;;;2.16;76.26
34235;BME280;20500;49.856;20.290;2023-12-22T13:42:58;96106.70;;;2.17;76.29
34235;BME280;20500;49.856;20.290;2023-12-22T13:46:06;96105.52;;;2.19;76.48
34235;BME280;20500;49.856;20.290;2023-12-22T13:49:12;96105.67;;;2.21;76.52
34235;BME280;20500;49.856;20.290;2023-12-22T13:52:28;96153.41;;;2.24;76.52
34235;BME280;20500;49.856;20.290;2023-12-22T13:55:37;96172.96;;;2.18;76.03
34235;BME280;20500;49.856;20.290;2023-12-22T13:58:47;96216.25;;;2.07;76.06
34235;BME280;20500;49.856;20.290;2023-12-22T14:01:53;96233.11;;;1.93;76.20
34235;BME280;20500;49.856;20.290;2023-12-22T14:04:58;96185.64;;;1.75;76.14
34235;BME280;20500;49.856;20.290;2023-12-22T14:08:05;96158.50;;;1.64;76.49
34235;BME280;20500;49.856;20.290;2023-12-22T14:11:11;96167.05;;;1.59;76.41
34235;BME280;20500;49.856;20.290;2023-12-22T14:14:17;96180.39;;;1.55;76.55
34235;BME280;20500;49.856;20.290;2023-12-22T14:17:23;96178.83;;;1.55;76.64
34235;BME280;20500;49.856;20.290;2023-12-22T14:20:28;96185.39;;;1.57;76.78
34235;BME280;20500;49.856;20.290;2023-12-22T14:23:34;96192.60;;;1.60;76.90
34235;BME280;20500;49.856;20.290;2023-12-22T14:26:54;96190.96;;;1.62;76.89
34235;BME280;20500;49.856;20.290;2023-12-22T14:30:00;96193.07;;;1.62;76.96
34235;BME280;20500;49.856;20.290;2023-12-22T14:33:06;96189.48;;;1.65;76.79
34235;BME280;20500;49.856;20.290;2023-12-22T14:36:11;96182.05;;;1.69;76.76
34235;BME280;20500;49.856;20.290;2023-12-22T14:39:17;96178.23;;;1.65;76.69
34235;BME280;20500;49.856;20.290;2023-12-22T14:42:22;96183.57;;;1.61;76.58
34235;BME280;20500;49.856;20.290;2023-12-22T14:45:28;96185.95;;;1.59;76.63
34235;BME280;20500;49.856;20.290;2023-12-22T14:48:33;96188.46;;;1.58;76.60
34235;BME280;20500;49.856;20.290;2023-12-22T14:51:39;96186.07;;;1.57;76.42
34235;BME280;20500;49.856;20.290;2023-12-22T14:54:45;96183.55;;;1.57;76.50
34235;BME280;20500;49.856;20.290;2023-12-22T14:57:50;96196.27;;;1.58;76.59
34235;BME280;20500;49.856;20.290;2023-12-22T15:00:56;96208.20;;;1.60;76.48
34235;BME280;20500;49.856;20.290;2023-12-22T15:04:02;96205.36;;;1.62;76.41
34235;BME280;20500;49.856;20.290;2023-12-22T15:07:07;96205.31;;;1.63;76.34
34235;BME280;20500;49.856;20.290;2023-12-22T15:10:13;96201.91;;;1.64;76.31
34235;BME280;20500;49.856;20.290;2023-12-22T15:13:19;96206.62;;;1.65;76.29
34235;BME280;20500;49.856;20.290;2023-12-22T15:16:24;96213.06;;;1.68;76.32
34235;BME280;20500;49.856;20.290;2023-12-22T15:19:30;96210.23;;;1.69;76.35
34235;BME280;20500;49.856;20.290;2023-12-22T15:22:36;96210.10;;;1.68;76.33
34235;BME280;20500;49.856;20.290;2023-12-22T15:25:41;96202.55;;;1.66;76.19
34235;BME280;20500;49.856;20.290;2023-12-22T15:28:47;96203.68;;;1.66;76.16
34235;BME280;20500;49.856;20.290;2023-12-22T15:31:52;96200.69;;;1.68;76.17
34235;BME280;20500;49.856;20.290;2023-12-22T15:35:06;96201.17;;;1.73;76.13
34235;BME280;20500;49.856;20.290;2023-12-22T15:38:12;96200.25;;;1.77;75.98
34235;BME280;20500;49.856;20.290;2023-12-22T15:41:19;96198.53;;;1.79;76.02
34235;BME280;20500;49.856;20.290;2023-12-22T15:44:25;96204.11;;;1.80;75.79
34235;BME280;20500;49.856;20.290;2023-12-22T15:47:33;96205.87;;;1.83;75.60
34235;BME280;20500;49.856;20.290;2023-12-22T15:50:38;96197.37;;;1.85;75.58
34235;BME280;20500;49.856;20.290;2023-12-22T15:53:43;96197.46;;;1.87;75.40
34235;BME280;20500;49.856;20.290;2023-12-22T15:56:49;96192.90;;;1.88;75.52
34235;BME280;20500;49.856;20.290;2023-12-22T15:59:55;96195.98;;;1.88;75.23
34235;BME280;20500;49.856;20.290;2023-12-22T16:03:00;96196.27;;;1.88;75.01
34235;BME280;20500;49.856;20.290;2023-12-22T16:06:08;96193.89;;;1.92;74.91
34235;BME280;20500;49.856;20.290;2023-12-22T16:09:14;96191.27;;;1.97;74.83
34235;BME280;20500;49.856;20.290;2023-12-22T16:12:19;96189.48;;;2.00;74.86
34235;BME280;20500;49.856;20.290;2023-12-22T16:15:25;96190.77;;;2.01;74.54
34235;BME280;20500;49.856;20.290;2023-12-22T16:18:30;96188.41;;;2.01;74.34
34235;BME280;20500;49.856;20.290;2023-12-22T16:21:41;96190.60;;;2.02;74.41
34235;BME280;20500;49.856;20.290;2023-12-22T16:24:48;96197.75;;;2.02;74.16
34235;BME280;20500;49.856;20.290;2023-12-22T16:27:53;96209.00;;;2.01;74.04
34235;BME280;20500;49.856;20.290;2023-12-22T16:30:59;96215.63;;;2.02;74.15